createdAt,value
2018-08-19T00:00:59.607Z,0.00
2018-08-19T00:01:59.531Z,0.00
2018-08-19T00:02:59.472Z,0.00
2018-08-19T00:03:59.385Z,0.00
2018-08-19T00:04:59.315Z,0.00
2018-08-19T00:05:59.241Z,0.00
2018-08-19T00:06:59.169Z,0.00
2018-08-19T00:07:59.096Z,0.00
2018-08-19T00:08:59.024Z,0.00
2018-08-19T00:09:58.952Z,0.00
2018-08-19T00:10:58.879Z,0.00
2018-08-19T00:11:58.807Z,0.00
2018-08-19T00:12:58.735Z,0.00
2018-08-19T00:13:58.663Z,0.00
2018-08-19T00:14:58.590Z,0.00
2018-08-19T00:15:58.517Z,0.00
2018-08-19T00:16:58.446Z,0.00
2018-08-19T00:17:58.372Z,0.00
2018-08-19T00:18:58.299Z,0.00
2018-08-19T00:19:58.233Z,0.00
2018-08-19T00:20:58.155Z,0.00
2018-08-19T00:21:58.082Z,0.00
2018-08-19T00:22:58.015Z,0.00
2018-08-19T00:23:57.991Z,0.00
2018-08-19T00:24:57.866Z,0.00
2018-08-19T00:25:57.791Z,0.00
2018-08-19T00:26:57.720Z,0.00
2018-08-19T00:27:57.647Z,0.00
2018-08-19T00:28:57.575Z,0.00
2018-08-19T00:29:57.501Z,0.00
2018-08-19T00:30:57.430Z,0.00
2018-08-19T00:31:57.359Z,0.00
2018-08-19T00:32:57.286Z,0.00
2018-08-19T00:33:57.210Z,0.00
2018-08-19T00:34:57.138Z,0.00
2018-08-19T00:35:57.065Z,0.00
2018-08-19T00:36:56.993Z,0.00
2018-08-19T00:37:56.920Z,0.00
2018-08-19T00:38:56.846Z,0.00
2018-08-19T00:39:56.774Z,0.00
2018-08-19T00:40:56.702Z,0.00
2018-08-19T00:41:56.669Z,0.00
2018-08-19T00:42:56.557Z,0.00
2018-08-19T00:43:56.483Z,0.00
2018-08-19T00:44:56.411Z,0.00
2018-08-19T00:45:56.338Z,0.00
2018-08-19T00:46:56.263Z,0.00
2018-08-19T00:47:56.192Z,0.00
2018-08-19T00:48:56.119Z,0.00
2018-08-19T00:49:56.045Z,0.00
2018-08-19T00:50:55.973Z,0.00
2018-08-19T00:51:55.900Z,0.00
2018-08-19T00:52:55.830Z,0.00
2018-08-19T00:53:55.754Z,0.00
2018-08-19T00:54:55.684Z,0.00
2018-08-19T00:55:55.608Z,0.00
2018-08-19T00:56:55.540Z,0.00
2018-08-19T00:57:55.463Z,0.00
2018-08-19T00:58:55.390Z,0.00
2018-08-19T00:59:55.318Z,0.00
2018-08-19T01:00:55.247Z,0.00
2018-08-19T01:01:55.172Z,0.00
2018-08-19T01:02:55.099Z,0.00
2018-08-19T01:03:55.030Z,0.00
2018-08-19T01:04:54.954Z,0.00
2018-08-19T01:05:54.880Z,0.00
2018-08-19T01:06:54.809Z,0.00
2018-08-19T01:07:54.735Z,0.00
2018-08-19T01:08:54.663Z,0.00
2018-08-19T01:09:54.589Z,0.00
2018-08-19T01:10:54.518Z,0.00
2018-08-19T01:11:54.444Z,0.00
2018-08-19T01:12:54.372Z,0.00
2018-08-19T01:13:54.298Z,0.00
2018-08-19T01:14:54.225Z,0.00
2018-08-19T01:15:54.153Z,0.00
2018-08-19T01:16:54.081Z,0.00
2018-08-19T01:17:54.008Z,0.00
2018-08-19T01:18:53.935Z,0.00
2018-08-19T01:19:53.862Z,0.00
2018-08-19T01:20:53.790Z,0.00
2018-08-19T01:21:53.714Z,0.00
2018-08-19T01:22:53.643Z,0.00
2018-08-19T01:23:53.571Z,0.00
2018-08-19T01:24:53.498Z,0.00
2018-08-19T01:25:53.425Z,0.00
2018-08-19T01:26:53.355Z,0.00
2018-08-19T01:27:53.279Z,0.00
2018-08-19T01:28:53.206Z,0.00
2018-08-19T01:29:53.133Z,0.00
2018-08-19T01:30:53.061Z,0.00
2018-08-19T01:31:52.992Z,0.00
2018-08-19T01:32:52.915Z,0.00
2018-08-19T01:33:52.841Z,0.00
2018-08-19T01:34:52.770Z,0.00
2018-08-19T01:35:52.696Z,0.00
2018-08-19T01:36:52.624Z,0.00
2018-08-19T01:37:52.550Z,0.00
2018-08-19T01:38:52.476Z,0.00
2018-08-19T01:39:52.406Z,0.00
2018-08-19T01:40:52.332Z,0.00
2018-08-19T01:41:52.259Z,0.00
2018-08-19T01:42:52.186Z,0.00
2018-08-19T01:43:52.117Z,0.00
2018-08-19T01:44:52.040Z,0.00
2018-08-19T01:45:51.968Z,0.00
2018-08-19T01:46:51.894Z,0.00
2018-08-19T01:47:51.830Z,0.00
2018-08-19T01:48:51.748Z,0.00
2018-08-19T01:49:51.676Z,0.00
2018-08-19T01:50:51.605Z,0.00
2018-08-19T01:51:51.528Z,0.00
2018-08-19T01:52:51.456Z,0.00
2018-08-19T01:53:51.383Z,0.00
2018-08-19T01:54:51.311Z,0.00
2018-08-19T01:55:51.238Z,0.00
2018-08-19T01:56:51.165Z,0.00
2018-08-19T01:57:51.097Z,0.00
2018-08-19T01:58:51.018Z,0.00
2018-08-19T01:59:50.946Z,0.00
2018-08-19T02:00:50.874Z,0.00
2018-08-19T02:01:50.800Z,0.00
2018-08-19T02:02:50.730Z,0.00
2018-08-19T02:03:50.654Z,0.00
2018-08-19T02:04:50.580Z,0.00
2018-08-19T02:05:50.508Z,0.00
2018-08-19T02:06:50.434Z,0.00
2018-08-19T02:07:50.362Z,0.00
2018-08-19T02:08:50.290Z,0.00
2018-08-19T02:09:50.215Z,0.00
2018-08-19T02:10:50.142Z,0.00
2018-08-19T02:11:50.069Z,0.00
2018-08-19T02:12:49.997Z,0.00
2018-08-19T02:13:49.923Z,0.00
2018-08-19T02:14:49.850Z,0.00
2018-08-19T02:15:49.777Z,0.00
2018-08-19T02:16:49.705Z,0.00
2018-08-19T02:17:49.630Z,0.00
2018-08-19T02:18:49.556Z,0.00
2018-08-19T02:19:49.487Z,0.00
2018-08-19T02:20:49.506Z,0.00
2018-08-19T02:21:49.338Z,0.00
2018-08-19T02:22:49.268Z,0.00
2018-08-19T02:23:49.192Z,0.00
2018-08-19T02:24:49.119Z,0.00
2018-08-19T02:25:49.045Z,0.00
2018-08-19T02:26:48.972Z,0.00
2018-08-19T02:27:48.900Z,0.00
2018-08-19T02:28:48.826Z,0.00
2018-08-19T02:29:48.753Z,0.00
2018-08-19T02:30:48.680Z,0.00
2018-08-19T02:31:48.609Z,0.00
2018-08-19T02:32:48.536Z,0.00
2018-08-19T02:33:48.460Z,0.00
2018-08-19T02:34:48.386Z,0.00
2018-08-19T02:35:48.314Z,0.00
2018-08-19T02:36:48.241Z,0.00
2018-08-19T02:37:48.166Z,0.00
2018-08-19T02:38:48.093Z,0.00
2018-08-19T02:39:48.020Z,0.00
2018-08-19T02:40:47.946Z,0.00
2018-08-19T02:41:47.873Z,0.00
2018-08-19T02:42:47.800Z,0.00
2018-08-19T02:43:47.728Z,0.00
2018-08-19T02:44:47.654Z,0.00
2018-08-19T02:45:47.580Z,0.00
2018-08-19T02:46:47.508Z,0.00
2018-08-19T02:47:47.435Z,0.00
2018-08-19T02:48:47.363Z,0.00
2018-08-19T02:49:47.287Z,0.00
2018-08-19T02:50:47.213Z,0.00
2018-08-19T02:51:47.141Z,0.00
2018-08-19T02:52:47.067Z,0.00
2018-08-19T02:53:46.993Z,0.00
2018-08-19T02:54:46.921Z,0.00
2018-08-19T02:55:46.854Z,0.00
2018-08-19T02:56:46.774Z,0.00
2018-08-19T02:57:46.699Z,0.00
2018-08-19T02:58:46.626Z,0.00
2018-08-19T02:59:46.555Z,0.00
2018-08-19T03:00:46.480Z,0.00
2018-08-19T03:01:46.406Z,0.00
2018-08-19T03:02:46.334Z,0.00
2018-08-19T03:03:46.260Z,0.00
2018-08-19T03:04:46.186Z,0.00
2018-08-19T03:05:46.112Z,0.00
2018-08-19T03:06:46.038Z,0.00
2018-08-19T03:07:45.967Z,0.00
2018-08-19T03:08:45.892Z,0.00
2018-08-19T03:09:45.819Z,0.00
2018-08-19T03:10:45.746Z,0.00
2018-08-19T03:11:45.673Z,0.00
2018-08-19T03:12:45.599Z,0.00
2018-08-19T03:13:45.525Z,0.00
2018-08-19T03:14:45.452Z,0.00
2018-08-19T03:15:45.380Z,0.00
2018-08-19T03:16:45.307Z,0.00
2018-08-19T03:17:45.233Z,0.00
2018-08-19T03:18:45.163Z,0.00
2018-08-19T03:19:45.086Z,0.00
2018-08-19T03:20:45.015Z,0.00
2018-08-19T03:21:44.938Z,0.00
2018-08-19T03:22:44.864Z,0.00
2018-08-19T03:23:44.790Z,0.00
2018-08-19T03:24:44.720Z,0.00
2018-08-19T03:25:44.644Z,0.00
2018-08-19T03:26:44.569Z,0.00
2018-08-19T03:27:44.497Z,0.00
2018-08-19T03:28:44.469Z,0.00
2018-08-19T03:29:44.350Z,0.00
2018-08-19T03:30:44.276Z,0.00
2018-08-19T03:31:44.204Z,0.00
2018-08-19T03:32:44.129Z,0.00
2018-08-19T03:33:44.057Z,0.00
2018-08-19T03:34:43.982Z,0.00
2018-08-19T03:35:43.910Z,0.00
2018-08-19T03:36:43.840Z,0.00
2018-08-19T03:37:43.761Z,0.00
2018-08-19T03:38:43.695Z,0.00
2018-08-19T03:39:43.615Z,0.00
2018-08-19T03:40:43.541Z,0.00
2018-08-19T03:41:43.468Z,0.00
2018-08-19T03:42:43.393Z,0.00
2018-08-19T03:43:43.324Z,0.00
2018-08-19T03:44:43.246Z,0.00
2018-08-19T03:45:43.173Z,0.00
2018-08-19T03:46:43.100Z,0.00
2018-08-19T03:47:43.027Z,0.00
2018-08-19T03:48:42.952Z,0.00
2018-08-19T03:49:42.879Z,0.00
2018-08-19T03:50:42.805Z,0.00
2018-08-19T03:51:42.731Z,0.00
2018-08-19T03:52:42.658Z,4.00
2018-08-19T03:53:42.584Z,4.00
2018-08-19T03:54:42.512Z,4.00
2018-08-19T03:55:42.436Z,4.00
2018-08-19T03:56:42.365Z,4.00
2018-08-19T03:57:42.290Z,4.00
2018-08-19T03:58:42.218Z,4.00
2018-08-19T03:59:42.143Z,8.00
2018-08-19T04:00:42.071Z,8.00
2018-08-19T04:01:41.996Z,8.00
2018-08-19T04:02:41.921Z,8.00
2018-08-19T04:03:41.848Z,12.00
2018-08-19T04:04:41.777Z,12.00
2018-08-19T04:05:41.705Z,16.00
2018-08-19T04:06:41.628Z,20.00
2018-08-19T04:07:41.556Z,24.00
2018-08-19T04:08:41.482Z,28.00
2018-08-19T04:09:41.411Z,32.00
2018-08-19T04:10:41.338Z,36.00
2018-08-19T04:11:41.262Z,40.00
2018-08-19T04:12:41.195Z,40.00
2018-08-19T04:13:41.113Z,48.00
2018-08-19T04:14:41.039Z,56.00
2018-08-19T04:15:40.966Z,60.00
2018-08-19T04:16:40.895Z,64.00
2018-08-19T04:17:40.819Z,72.00
2018-08-19T04:18:40.744Z,80.00
2018-08-19T04:19:40.671Z,92.00
2018-08-19T04:20:40.598Z,96.00
2018-08-19T04:21:40.524Z,108.00
2018-08-19T04:22:40.451Z,116.00
2018-08-19T04:23:40.489Z,132.00
2018-08-19T04:24:40.309Z,140.00
2018-08-19T04:25:40.229Z,152.00
2018-08-19T04:26:40.156Z,164.00
2018-08-19T04:27:40.082Z,180.00
2018-08-19T04:28:40.009Z,192.00
2018-08-19T04:29:39.943Z,204.00
2018-08-19T04:30:39.861Z,216.00
2018-08-19T04:31:39.787Z,232.00
2018-08-19T04:32:39.713Z,248.00
2018-08-19T04:33:39.643Z,260.00
2018-08-19T04:34:39.566Z,272.00
2018-08-19T04:35:39.491Z,288.00
2018-08-19T04:36:39.418Z,304.00
2018-08-19T04:37:39.343Z,320.00
2018-08-19T04:38:39.270Z,332.00
2018-08-19T04:39:39.245Z,352.00
2018-08-19T04:40:39.125Z,368.00
2018-08-19T04:41:39.049Z,380.00
2018-08-19T04:42:39.025Z,400.00
2018-08-19T04:43:38.902Z,416.00
2018-08-19T04:44:38.827Z,428.00
2018-08-19T04:45:38.755Z,444.00
2018-08-19T04:46:38.679Z,456.00
2018-08-19T04:47:38.606Z,468.00
2018-08-19T04:48:38.531Z,484.00
2018-08-19T04:49:38.457Z,496.00
2018-08-19T04:50:38.388Z,508.00
2018-08-19T04:51:38.314Z,516.00
2018-08-19T04:52:38.237Z,528.00
2018-08-19T04:53:38.162Z,540.00
2018-08-19T04:54:38.089Z,552.00
2018-08-19T04:55:38.015Z,560.00
2018-08-19T04:56:37.941Z,572.00
2018-08-19T04:57:37.867Z,580.00
2018-08-19T04:58:37.794Z,596.00
2018-08-19T04:59:37.719Z,608.00
2018-08-19T05:00:37.646Z,624.00
2018-08-19T05:01:37.572Z,636.00
2018-08-19T05:02:37.528Z,648.00
2018-08-19T05:03:37.426Z,664.00
2018-08-19T05:04:37.350Z,676.00
2018-08-19T05:05:37.278Z,688.00
2018-08-19T05:06:37.204Z,704.00
2018-08-19T05:07:37.133Z,712.00
2018-08-19T05:08:37.058Z,728.00
2018-08-19T05:09:36.982Z,740.00
2018-08-19T05:10:36.910Z,748.00
2018-08-19T05:11:36.839Z,760.00
2018-08-19T05:12:36.763Z,772.00
2018-08-19T05:13:36.690Z,780.00
2018-08-19T05:14:36.615Z,792.00
2018-08-19T05:15:36.614Z,804.00
2018-08-19T05:16:36.469Z,812.00
2018-08-19T05:17:36.395Z,828.00
2018-08-19T05:18:36.322Z,836.00
2018-08-19T05:19:36.248Z,844.00
2018-08-19T05:20:36.176Z,852.00
2018-08-19T05:21:36.100Z,856.00
2018-08-19T05:22:36.123Z,868.00
2018-08-19T05:23:35.956Z,876.00
2018-08-19T05:24:35.882Z,888.00
2018-08-19T05:25:35.809Z,896.00
2018-08-19T05:26:35.735Z,908.00
2018-08-19T05:27:35.663Z,912.00
2018-08-19T05:28:35.592Z,916.00
2018-08-19T05:29:35.522Z,920.00
2018-08-19T05:30:35.443Z,928.00
2018-08-19T05:31:35.377Z,936.00
2018-08-19T05:32:35.296Z,940.00
2018-08-19T05:33:35.223Z,952.00
2018-08-19T05:34:35.151Z,960.00
2018-08-19T05:35:35.078Z,976.00
2018-08-19T05:36:35.006Z,992.00
2018-08-19T05:37:34.932Z,1012.00
2018-08-19T05:38:34.859Z,1028.00
2018-08-19T05:39:34.785Z,1044.00
2018-08-19T05:40:34.713Z,1056.00
2018-08-19T05:41:34.639Z,1060.00
2018-08-19T05:42:34.567Z,1072.00
2018-08-19T05:43:34.500Z,1088.00
2018-08-19T05:44:34.421Z,1104.00
2018-08-19T05:45:34.347Z,1116.00
2018-08-19T05:46:34.274Z,1128.00
2018-08-19T05:47:34.201Z,1148.00
2018-08-19T05:48:34.128Z,1160.00
2018-08-19T05:49:34.054Z,1172.00
2018-08-19T05:50:33.982Z,1184.00
2018-08-19T05:51:33.909Z,1200.00
2018-08-19T05:52:33.835Z,1212.00
2018-08-19T05:53:33.762Z,1212.00
2018-08-19T05:54:33.690Z,1212.00
2018-08-19T05:55:33.645Z,1220.00
2018-08-19T05:56:33.543Z,1228.00
2018-08-19T05:57:33.469Z,1244.00
2018-08-19T05:58:33.396Z,1256.00
2018-08-19T05:59:33.323Z,1276.00
2018-08-19T06:00:33.251Z,1292.00
2018-08-19T06:01:33.179Z,1304.00
2018-08-19T06:02:33.109Z,1316.00
2018-08-19T06:03:33.032Z,1328.00
2018-08-19T06:04:32.961Z,1336.00
2018-08-19T06:05:32.886Z,1340.00
2018-08-19T06:06:32.813Z,1348.00
2018-08-19T06:07:32.855Z,1360.00
2018-08-19T06:08:32.674Z,1376.00
2018-08-19T06:09:32.593Z,1388.00
2018-08-19T06:10:32.522Z,1408.00
2018-08-19T06:11:32.449Z,1436.00
2018-08-19T06:12:32.377Z,1460.00
2018-08-19T06:13:32.306Z,1464.00
2018-08-19T06:14:32.231Z,1476.00
2018-08-19T06:15:32.159Z,1480.00
2018-08-19T06:16:32.086Z,1496.00
2018-08-19T06:17:32.016Z,1504.00
2018-08-19T06:18:31.940Z,1516.00
2018-08-19T06:19:31.866Z,1536.00
2018-08-19T06:20:31.795Z,1540.00
2018-08-19T06:21:31.725Z,1548.00
2018-08-19T06:22:31.652Z,1556.00
2018-08-19T06:23:31.577Z,1572.00
2018-08-19T06:24:31.519Z,1596.00
2018-08-19T06:25:31.432Z,1608.00
2018-08-19T06:26:31.359Z,1620.00
2018-08-19T06:27:31.287Z,1648.00
2018-08-19T06:28:31.219Z,1668.00
2018-08-19T06:29:31.144Z,1680.00
2018-08-19T06:30:31.070Z,1692.00
2018-08-19T06:31:30.998Z,1700.00
2018-08-19T06:32:30.927Z,1704.00
2018-08-19T06:33:30.853Z,1708.00
2018-08-19T06:34:30.848Z,1712.00
2018-08-19T06:35:30.710Z,1712.00
2018-08-19T06:36:30.725Z,1692.00
2018-08-19T06:37:30.568Z,1684.00
2018-08-19T06:38:30.494Z,1700.00
2018-08-19T06:39:30.425Z,1696.00
2018-08-19T06:40:30.353Z,1696.00
2018-08-19T06:41:30.279Z,1704.00
2018-08-19T06:42:30.208Z,1708.00
2018-08-19T06:43:30.141Z,1708.00
2018-08-19T06:44:30.066Z,1708.00
2018-08-19T06:45:29.996Z,1704.00
2018-08-19T06:46:29.923Z,1716.00
2018-08-19T06:47:29.851Z,1736.00
2018-08-19T06:48:29.781Z,1748.00
2018-08-19T06:49:29.711Z,1756.00
2018-08-19T06:50:29.639Z,1768.00
2018-08-19T06:51:29.569Z,1776.00
2018-08-19T06:52:29.498Z,1768.00
2018-08-19T06:53:29.425Z,1776.00
2018-08-19T06:54:29.357Z,1768.00
2018-08-19T06:55:29.285Z,1776.00
2018-08-19T06:56:29.214Z,1796.00
2018-08-19T06:57:29.144Z,1804.00
2018-08-19T06:58:29.073Z,1820.00
2018-08-19T06:59:29.004Z,1824.00
2018-08-19T07:00:28.932Z,1852.00
2018-08-19T07:01:28.860Z,1868.00
2018-08-19T07:02:28.795Z,1880.00
2018-08-19T07:03:28.807Z,1892.00
2018-08-19T07:04:28.649Z,1896.00
2018-08-19T07:05:28.579Z,1904.00
2018-08-19T07:06:28.509Z,1900.00
2018-08-19T07:07:28.438Z,1888.00
2018-08-19T07:08:28.368Z,1892.00
2018-08-19T07:09:28.297Z,1884.00
2018-08-19T07:10:28.226Z,1884.00
2018-08-19T07:11:28.156Z,1852.00
2018-08-19T07:12:28.090Z,1884.00
2018-08-19T07:13:28.015Z,1924.00
2018-08-19T07:14:27.944Z,1940.00
2018-08-19T07:15:27.893Z,1964.00
2018-08-19T07:16:27.805Z,1960.00
2018-08-19T07:17:27.733Z,1960.00
2018-08-19T07:18:27.663Z,1964.00
2018-08-19T07:19:27.594Z,1972.00
2018-08-19T07:20:27.524Z,1952.00
2018-08-19T07:21:27.454Z,1984.00
2018-08-19T07:22:27.382Z,1996.00
2018-08-19T07:23:27.311Z,2004.00
2018-08-19T07:24:27.242Z,2012.00
2018-08-19T07:25:27.172Z,2024.00
2018-08-19T07:26:27.104Z,2036.00
2018-08-19T07:27:27.031Z,2048.00
2018-08-19T07:28:26.962Z,2060.00
2018-08-19T07:29:26.890Z,2068.00
2018-08-19T07:30:26.824Z,2040.00
2018-08-19T07:31:26.751Z,2032.00
2018-08-19T07:32:26.682Z,2112.00
2018-08-19T07:33:26.611Z,2100.00
2018-08-19T07:34:26.540Z,2128.00
2018-08-19T07:35:26.470Z,2140.00
2018-08-19T07:36:26.401Z,2160.00
2018-08-19T07:37:26.331Z,2160.00
2018-08-19T07:38:26.260Z,2160.00
2018-08-19T07:39:26.190Z,2164.00
2018-08-19T07:40:26.121Z,2168.00
2018-08-19T07:41:26.051Z,2168.00
2018-08-19T07:42:25.984Z,2152.00
2018-08-19T07:43:25.911Z,2156.00
2018-08-19T07:44:25.841Z,2160.00
2018-08-19T07:45:25.771Z,2176.00
2018-08-19T07:46:25.702Z,2192.00
2018-08-19T07:47:25.661Z,2208.00
2018-08-19T07:48:25.563Z,2216.00
2018-08-19T07:49:25.491Z,2216.00
2018-08-19T07:50:25.426Z,2224.00
2018-08-19T07:51:25.353Z,2216.00
2018-08-19T07:52:25.284Z,2224.00
2018-08-19T07:53:25.214Z,2212.00
2018-08-19T07:54:25.145Z,2224.00
2018-08-19T07:55:25.075Z,2228.00
2018-08-19T07:56:25.005Z,2240.00
2018-08-19T07:57:24.936Z,2252.00
2018-08-19T07:58:24.865Z,2256.00
2018-08-19T07:59:24.797Z,2260.00
2018-08-19T08:00:24.727Z,2276.00
2018-08-19T08:01:24.733Z,2284.00
2018-08-19T08:02:24.588Z,2280.00
2018-08-19T08:03:24.519Z,2284.00
2018-08-19T08:04:24.449Z,2276.00
2018-08-19T08:05:24.379Z,2256.00
2018-08-19T08:06:24.309Z,2272.00
2018-08-19T08:07:24.240Z,2276.00
2018-08-19T08:08:24.173Z,2296.00
2018-08-19T08:09:24.101Z,2304.00
2018-08-19T08:10:24.031Z,2308.00
2018-08-19T08:11:23.963Z,2328.00
2018-08-19T08:12:23.893Z,2344.00
2018-08-19T08:13:23.822Z,2352.00
2018-08-19T08:14:23.754Z,2356.00
2018-08-19T08:15:23.690Z,2388.00
2018-08-19T08:16:23.616Z,2404.00
2018-08-19T08:17:23.549Z,2416.00
2018-08-19T08:18:23.476Z,2432.00
2018-08-19T08:19:23.405Z,2436.00
2018-08-19T08:20:23.336Z,2440.00
2018-08-19T08:21:23.357Z,2460.00
2018-08-19T08:22:23.197Z,2484.00
2018-08-19T08:23:23.129Z,2492.00
2018-08-19T08:24:23.062Z,2496.00
2018-08-19T08:25:22.990Z,2504.00
2018-08-19T08:26:22.922Z,2508.00
2018-08-19T08:27:22.852Z,2532.00
2018-08-19T08:28:22.784Z,2556.00
2018-08-19T08:29:22.713Z,2568.00
2018-08-19T08:30:22.644Z,2588.00
2018-08-19T08:31:22.575Z,2600.00
2018-08-19T08:32:22.507Z,2616.00
2018-08-19T08:33:22.438Z,2632.00
2018-08-19T08:34:22.432Z,2636.00
2018-08-19T08:35:22.298Z,2660.00
2018-08-19T08:36:22.230Z,2676.00
2018-08-19T08:37:22.162Z,2688.00
2018-08-19T08:38:22.095Z,2704.00
2018-08-19T08:39:22.023Z,2720.00
2018-08-19T08:40:21.958Z,2728.00
2018-08-19T08:41:21.884Z,2740.00
2018-08-19T08:42:21.816Z,2744.00
2018-08-19T08:43:21.747Z,2752.00
2018-08-19T08:44:21.683Z,2760.00
2018-08-19T08:45:21.609Z,2764.00
2018-08-19T08:46:21.540Z,2768.00
2018-08-19T08:47:21.474Z,2776.00
2018-08-19T08:48:21.406Z,2780.00
2018-08-19T08:49:21.334Z,2780.00
2018-08-19T08:50:21.266Z,2776.00
2018-08-19T08:51:21.198Z,2800.00
2018-08-19T08:52:21.130Z,2800.00
2018-08-19T08:53:21.095Z,2812.00
2018-08-19T08:54:20.991Z,2816.00
2018-08-19T08:55:20.924Z,2836.00
2018-08-19T08:56:20.864Z,2856.00
2018-08-19T08:57:20.786Z,2884.00
2018-08-19T08:58:20.718Z,2892.00
2018-08-19T08:59:20.650Z,2904.00
2018-08-19T09:00:20.582Z,2928.00
2018-08-19T09:01:20.513Z,2940.00
2018-08-19T09:02:20.445Z,2940.00
2018-08-19T09:03:20.455Z,2948.00
2018-08-19T09:04:20.308Z,2952.00
2018-08-19T09:05:20.239Z,2976.00
2018-08-19T09:06:20.171Z,2964.00
2018-08-19T09:07:20.103Z,2976.00
2018-08-19T09:08:20.035Z,2980.00
2018-08-19T09:09:19.967Z,2988.00
2018-08-19T09:10:19.898Z,3012.00
2018-08-19T09:11:19.831Z,3032.00
2018-08-19T09:12:19.762Z,3036.00
2018-08-19T09:13:19.692Z,3068.00
2018-08-19T09:14:19.627Z,3084.00
2018-08-19T09:15:19.557Z,3112.00
2018-08-19T09:16:19.490Z,3124.00
2018-08-19T09:17:19.421Z,3144.00
2018-08-19T09:18:19.354Z,3172.00
2018-08-19T09:19:19.371Z,3200.00
2018-08-19T09:20:19.218Z,3232.00
2018-08-19T09:21:19.148Z,3252.00
2018-08-19T09:22:19.084Z,3280.00
2018-08-19T09:23:19.225Z,3288.00
2018-08-19T09:24:18.945Z,3328.00
2018-08-19T09:25:18.879Z,3356.00
2018-08-19T09:26:18.815Z,3364.00
2018-08-19T09:27:18.741Z,3392.00
2018-08-19T09:28:18.673Z,3432.00
2018-08-19T09:29:18.605Z,3464.00
2018-08-19T09:30:18.536Z,3488.00
2018-08-19T09:31:18.473Z,3508.00
2018-08-19T09:32:18.407Z,3552.00
2018-08-19T09:33:18.333Z,3540.00
2018-08-19T09:34:18.266Z,3572.00
2018-08-19T09:35:18.198Z,3568.00
2018-08-19T09:36:18.129Z,3584.00
2018-08-19T09:37:18.063Z,3600.00
2018-08-19T09:38:17.996Z,3612.00
2018-08-19T09:39:17.930Z,3652.00
2018-08-19T09:40:17.860Z,3692.00
2018-08-19T09:41:17.794Z,3760.00
2018-08-19T09:42:17.725Z,3728.00
2018-08-19T09:43:17.657Z,3716.00
2018-08-19T09:44:17.590Z,3744.00
2018-08-19T09:45:17.523Z,3752.00
2018-08-19T09:46:17.454Z,3788.00
2018-08-19T09:47:17.387Z,3828.00
2018-08-19T09:48:17.330Z,3832.00
2018-08-19T09:49:17.251Z,3856.00
2018-08-19T09:50:17.186Z,3880.00
2018-08-19T09:51:17.118Z,3904.00
2018-08-19T09:52:17.052Z,3944.00
2018-08-19T09:53:16.983Z,3976.00
2018-08-19T09:54:16.924Z,3972.00
2018-08-19T09:55:16.849Z,3984.00
2018-08-19T09:56:16.781Z,3976.00
2018-08-19T09:57:16.714Z,3992.00
2018-08-19T09:58:16.648Z,4016.00
2018-08-19T09:59:16.584Z,4036.00
2018-08-19T10:00:16.513Z,4052.00
2018-08-19T10:01:16.445Z,4068.00
2018-08-19T10:02:16.382Z,4084.00
2018-08-19T10:03:16.311Z,4092.00
2018-08-19T10:04:16.245Z,4124.00
2018-08-19T10:05:16.191Z,4132.00
2018-08-19T10:06:16.167Z,4132.00
2018-08-19T10:07:16.093Z,4120.00
2018-08-19T10:08:15.977Z,4192.00
2018-08-19T10:09:15.954Z,4236.00
2018-08-19T10:10:15.846Z,4316.00
2018-08-19T10:11:15.776Z,4360.00
2018-08-19T10:12:15.711Z,4396.00
2018-08-19T10:13:15.644Z,4560.00
2018-08-19T10:14:15.575Z,4440.00
2018-08-19T10:15:15.507Z,4560.00
2018-08-19T10:16:15.442Z,4512.00
2018-08-19T10:17:15.374Z,4552.00
2018-08-19T10:18:15.308Z,4588.00
2018-08-19T10:19:15.240Z,4636.00
2018-08-19T10:20:15.174Z,4732.00
2018-08-19T10:21:15.106Z,4788.00
2018-08-19T10:22:15.039Z,4812.00
2018-08-19T10:23:14.972Z,4828.00
2018-08-19T10:24:14.906Z,4896.00
2018-08-19T10:25:14.841Z,4936.00
2018-08-19T10:26:14.771Z,4944.00
2018-08-19T10:27:14.705Z,4996.00
2018-08-19T10:28:14.638Z,5012.00
2018-08-19T10:29:14.572Z,5004.00
2018-08-19T10:30:14.505Z,5000.00
2018-08-19T10:31:14.443Z,5000.00
2018-08-19T10:32:14.373Z,5012.00
2018-08-19T10:33:14.304Z,5024.00
2018-08-19T10:34:14.238Z,5092.00
2018-08-19T10:35:14.171Z,5092.00
2018-08-19T10:36:14.125Z,5088.00
2018-08-19T10:38:13.971Z,5132.00
2018-08-19T10:39:14.000Z,5124.00
2018-08-19T10:40:13.838Z,5152.00
2018-08-19T10:41:13.772Z,5156.00
2018-08-19T10:42:13.710Z,5220.00
2018-08-19T10:43:13.639Z,5364.00
2018-08-19T10:44:13.584Z,5488.00
2018-08-19T10:45:13.504Z,5464.00
2018-08-19T10:46:13.469Z,5488.00
2018-08-19T10:47:13.374Z,5516.00
2018-08-19T10:48:13.306Z,5572.00
2018-08-19T10:49:13.240Z,5540.00
2018-08-19T10:50:13.174Z,5568.00
2018-08-19T10:51:13.108Z,5540.00
2018-08-19T10:52:13.042Z,6884.00
2018-08-19T10:53:13.023Z,5940.00
2018-08-19T10:54:12.909Z,13524.00
2018-08-19T10:55:12.844Z,7864.00
2018-08-19T10:56:12.777Z,5840.00
2018-08-19T10:57:12.809Z,19168.00
2018-08-19T10:58:12.645Z,25760.00
2018-08-19T10:59:12.580Z,14508.00
2018-08-19T11:00:12.514Z,12256.00
2018-08-19T11:01:12.450Z,7820.00
2018-08-19T11:02:12.386Z,12668.00
2018-08-19T11:03:12.316Z,7156.00
2018-08-19T11:04:12.250Z,18816.00
2018-08-19T11:05:12.186Z,13704.00
2018-08-19T11:06:12.118Z,8804.00
2018-08-19T11:07:12.052Z,26400.00
2018-08-19T11:08:11.987Z,6780.00
2018-08-19T11:09:11.921Z,23744.00
2018-08-19T11:10:11.855Z,21344.00
2018-08-19T11:11:11.790Z,9164.00
2018-08-19T11:12:11.725Z,18828.00
2018-08-19T11:13:11.659Z,7488.00
2018-08-19T11:14:11.594Z,9044.00
2018-08-19T11:15:11.528Z,11996.00
2018-08-19T11:16:11.462Z,10088.00
2018-08-19T11:17:11.398Z,10168.00
2018-08-19T11:18:11.331Z,7016.00
2018-08-19T11:19:11.266Z,7788.00
2018-08-19T11:20:11.201Z,8492.00
2018-08-19T11:21:11.225Z,10272.00
2018-08-19T11:22:11.070Z,9560.00
2018-08-19T11:23:11.006Z,18528.00
2018-08-19T11:24:10.945Z,24064.00
2018-08-19T11:25:10.874Z,23712.00
2018-08-19T11:26:10.809Z,16800.00
2018-08-19T11:27:10.744Z,13580.00
2018-08-19T11:28:10.679Z,15656.00
2018-08-19T11:29:10.614Z,17472.00
2018-08-19T11:30:10.548Z,26208.00
2018-08-19T11:31:10.484Z,20320.00
2018-08-19T11:32:10.420Z,14440.00
2018-08-19T11:33:10.354Z,9520.00
2018-08-19T11:34:10.290Z,11976.00
2018-08-19T11:35:10.226Z,37408.00
2018-08-19T11:36:10.160Z,29728.00
2018-08-19T11:37:10.096Z,16800.00
2018-08-19T11:38:10.032Z,16608.00
2018-08-19T11:39:09.966Z,54208.00
2018-08-19T11:40:09.903Z,65760.00
2018-08-19T11:41:09.839Z,67264.00
2018-08-19T11:42:09.774Z,75936.00
2018-08-19T11:43:09.712Z,84896.00
2018-08-19T11:44:09.647Z,86240.00
2018-08-19T11:45:09.585Z,81856.00
2018-08-19T11:46:09.521Z,81472.00
2018-08-19T11:47:09.459Z,84224.00
2018-08-19T11:48:09.398Z,85792.00
2018-08-19T11:49:09.336Z,88992.00
2018-08-19T11:50:09.320Z,82176.00
2018-08-19T11:51:09.214Z,74080.00
2018-08-19T11:52:09.155Z,81376.00
2018-08-19T11:53:09.094Z,89824.00
2018-08-19T11:54:09.034Z,89472.00
2018-08-19T11:55:08.975Z,89824.00
2018-08-19T11:56:08.917Z,93696.00
2018-08-19T11:57:08.862Z,93024.00
2018-08-19T11:58:08.901Z,91488.00
2018-08-19T11:59:08.742Z,94688.00
2018-08-19T12:00:08.687Z,99520.00
2018-08-19T12:01:08.687Z,100000.00
2018-08-19T12:02:08.657Z,94048.00
2018-08-19T12:03:08.511Z,93408.00
2018-08-19T12:04:08.454Z,99616.00
2018-08-19T12:05:08.397Z,98752.00
2018-08-19T12:06:08.340Z,92960.00
2018-08-19T12:07:08.284Z,87680.00
2018-08-19T12:08:08.227Z,87200.00
2018-08-19T12:09:08.178Z,92704.00
2018-08-19T12:10:08.115Z,92256.00
2018-08-19T12:11:08.058Z,89472.00
2018-08-19T12:12:08.001Z,89728.00
2018-08-19T12:13:07.945Z,95136.00
2018-08-19T12:14:07.890Z,99296.00
2018-08-19T12:15:07.834Z,96416.00
2018-08-19T12:16:07.779Z,94592.00
2018-08-19T12:17:07.843Z,95616.00
2018-08-19T12:18:07.671Z,94592.00
2018-08-19T12:19:07.611Z,91616.00
2018-08-19T12:20:07.556Z,92960.00
2018-08-19T12:21:07.500Z,93312.00
2018-08-19T12:22:07.443Z,89952.00
2018-08-19T12:23:07.388Z,93824.00
2018-08-19T12:24:07.333Z,96096.00
2018-08-19T12:25:07.278Z,95200.00
2018-08-19T12:26:07.226Z,96416.00
2018-08-19T12:27:07.168Z,89120.00
2018-08-19T12:28:07.113Z,88288.00
2018-08-19T12:29:07.060Z,88992.00